sensor_id;sensor_type;location;lat;lon;timestamp;P1;durP1;ratioP1;P2;durP2;ratioP2
83807;SDS011;73824;40.292;17.998;2023-12-29T00:01:13;139.50;;;70.25;;
83807;SDS011;73824;40.292;17.998;2023-12-29T00:03:38;117.13;;;63.30;;
83807;SDS011;73824;40.292;17.998;2023-12-29T00:06:04;109.80;;;58.20;;
83807;SDS011;73824;40.292;17.998;2023-12-29T00:08:30;104.65;;;58.53;;
83807;SDS011;73824;40.292;17.998;2023-12-29T00:10:56;113.72;;;59.90;;
83807;SDS011;73824;40.292;17.998;2023-12-29T00:13:22;118.43;;;61.10;;
83807;SDS011;73824;40.292;17.998;2023-12-29T00:15:52;110.55;;;59.63;;
83807;SDS011;73824;40.292;17.998;2023-12-29T00:18:18;133.43;;;59.38;;
83807;SDS011;73824;40.292;17.998;2023-12-29T00:20:44;106.80;;;53.60;;
83807;SDS011;73824;40.292;17.998;2023-12-29T00:23:10;113.00;;;48.20;;
83807;SDS011;73824;40.292;17.998;2023-12-29T00:25:35;118.10;;;47.87;;
83807;SDS011;73824;40.292;17.998;2023-12-29T00:28:02;109.68;;;47.78;;
83807;SDS011;73824;40.292;17.998;2023-12-29T00:30:28;99.60;;;43.33;;
83807;SDS011;73824;40.292;17.998;2023-12-29T00:32:54;79.38;;;37.92;;
83807;SDS011;73824;40.292;17.998;2023-12-29T00:35:20;80.15;;;38.83;;
83807;SDS011;73824;40.292;17.998;2023-12-29T00:37:46;78.93;;;38.57;;
83807;SDS011;73824;40.292;17.998;2023-12-29T00:40:11;84.67;;;36.20;;
83807;SDS011;73824;40.292;17.998;2023-12-29T00:42:37;66.40;;;33.58;;
83807;SDS011;73824;40.292;17.998;2023-12-29T00:45:03;64.17;;;33.33;;
83807;SDS011;73824;40.292;17.998;2023-12-29T00:47:29;64.60;;;34.03;;
83807;SDS011;73824;40.292;17.998;2023-12-29T00:49:55;75.60;;;36.50;;
83807;SDS011;73824;40.292;17.998;2023-12-29T00:52:20;67.63;;;35.47;;
83807;SDS011;73824;40.292;17.998;2023-12-29T00:54:46;72.10;;;36.20;;
83807;SDS011;73824;40.292;17.998;2023-12-29T00:57:11;78.65;;;40.33;;
83807;SDS011;73824;40.292;17.998;2023-12-29T00:59:37;74.75;;;38.13;;
83807;SDS011;73824;40.292;17.998;2023-12-29T01:02:05;79.87;;;40.73;;
83807;SDS011;73824;40.292;17.998;2023-12-29T01:04:31;82.60;;;43.03;;
83807;SDS011;73824;40.292;17.998;2023-12-29T01:06:56;90.87;;;45.07;;
83807;SDS011;73824;40.292;17.998;2023-12-29T01:09:22;82.83;;;43.40;;
83807;SDS011;73824;40.292;17.998;2023-12-29T01:11:47;82.38;;;43.75;;
83807;SDS011;73824;40.292;17.998;2023-12-29T01:14:13;78.93;;;42.95;;
83807;SDS011;73824;40.292;17.998;2023-12-29T01:16:39;77.77;;;38.53;;
83807;SDS011;73824;40.292;17.998;2023-12-29T01:19:05;86.18;;;38.08;;
83807;SDS011;73824;40.292;17.998;2023-12-29T01:21:31;67.97;;;34.10;;
83807;SDS011;73824;40.292;17.998;2023-12-29T01:23:59;72.28;;;36.28;;
83807;SDS011;73824;40.292;17.998;2023-12-29T01:26:26;69.67;;;34.83;;
83807;SDS011;73824;40.292;17.998;2023-12-29T01:28:51;74.65;;;35.10;;
83807;SDS011;73824;40.292;17.998;2023-12-29T01:31:17;63.90;;;33.40;;
83807;SDS011;73824;40.292;17.998;2023-12-29T01:33:43;62.95;;;33.33;;
83807;SDS011;73824;40.292;17.998;2023-12-29T01:36:08;55.73;;;31.23;;
83807;SDS011;73824;40.292;17.998;2023-12-29T01:38:34;57.20;;;30.77;;
83807;SDS011;73824;40.292;17.998;2023-12-29T01:40:59;56.70;;;29.77;;
83807;SDS011;73824;40.292;17.998;2023-12-29T01:43:25;63.80;;;29.47;;
83807;SDS011;73824;40.292;17.998;2023-12-29T01:45:50;62.47;;;29.80;;
83807;SDS011;73824;40.292;17.998;2023-12-29T01:48:15;53.07;;;29.03;;
83807;SDS011;73824;40.292;17.998;2023-12-29T01:50:41;56.30;;;29.75;;
83807;SDS011;73824;40.292;17.998;2023-12-29T01:53:08;53.63;;;28.77;;
83807;SDS011;73824;40.292;17.998;2023-12-29T01:55:33;64.75;;;28.50;;
83807;SDS011;73824;40.292;17.998;2023-12-29T01:57:59;53.97;;;28.30;;
83807;SDS011;73824;40.292;17.998;2023-12-29T02:00:26;57.45;;;29.17;;
83807;SDS011;73824;40.292;17.998;2023-12-29T02:02:52;55.72;;;29.25;;
83807;SDS011;73824;40.292;17.998;2023-12-29T02:05:18;52.75;;;28.13;;
83807;SDS011;73824;40.292;17.998;2023-12-29T02:07:47;48.13;;;25.83;;
83807;SDS011;73824;40.292;17.998;2023-12-29T02:10:16;54.95;;;27.50;;
83807;SDS011;73824;40.292;17.998;2023-12-29T02:12:43;51.55;;;27.48;;
83807;SDS011;73824;40.292;17.998;2023-12-29T02:15:12;47.03;;;26.00;;
83807;SDS011;73824;40.292;17.998;2023-12-29T02:17:41;55.63;;;28.52;;
83807;SDS011;73824;40.292;17.998;2023-12-29T02:20:12;52.83;;;27.73;;
83807;SDS011;73824;40.292;17.998;2023-12-29T02:22:39;51.58;;;27.98;;
83807;SDS011;73824;40.292;17.998;2023-12-29T02:25:05;51.63;;;28.88;;
83807;SDS011;73824;40.292;17.998;2023-12-29T02:27:46;52.77;;;28.57;;
83807;SDS011;73824;40.292;17.998;2023-12-29T02:33:04;47.88;;;28.60;;
83807;SDS011;73824;40.292;17.998;2023-12-29T02:35:33;50.25;;;29.75;;
83807;SDS011;73824;40.292;17.998;2023-12-29T02:38:03;55.33;;;32.03;;
83807;SDS011;73824;40.292;17.998;2023-12-29T02:40:28;47.70;;;29.10;;
83807;SDS011;73824;40.292;17.998;2023-12-29T02:42:54;55.42;;;31.90;;
83807;SDS011;73824;40.292;17.998;2023-12-29T02:45:20;48.97;;;30.33;;
83807;SDS011;73824;40.292;17.998;2023-12-29T02:47:46;51.22;;;30.55;;
83807;SDS011;73824;40.292;17.998;2023-12-29T02:50:12;54.10;;;30.90;;
83807;SDS011;73824;40.292;17.998;2023-12-29T02:52:37;49.27;;;29.60;;
83807;SDS011;73824;40.292;17.998;2023-12-29T02:55:03;49.33;;;30.33;;
83807;SDS011;73824;40.292;17.998;2023-12-29T02:57:29;47.92;;;30.15;;
83807;SDS011;73824;40.292;17.998;2023-12-29T02:59:55;49.58;;;30.23;;
83807;SDS011;73824;40.292;17.998;2023-12-29T03:02:21;49.58;;;28.73;;
83807;SDS011;73824;40.292;17.998;2023-12-29T03:04:47;46.60;;;29.60;;
83807;SDS011;73824;40.292;17.998;2023-12-29T03:07:12;48.70;;;28.67;;
83807;SDS011;73824;40.292;17.998;2023-12-29T03:09:37;50.45;;;29.27;;
83807;SDS011;73824;40.292;17.998;2023-12-29T03:12:03;56.58;;;32.05;;
83807;SDS011;73824;40.292;17.998;2023-12-29T03:14:29;55.88;;;31.27;;
83807;SDS011;73824;40.292;17.998;2023-12-29T03:16:55;56.10;;;32.00;;
83807;SDS011;73824;40.292;17.998;2023-12-29T03:19:20;54.97;;;32.10;;
83807;SDS011;73824;40.292;17.998;2023-12-29T03:21:46;50.15;;;30.67;;
83807;SDS011;73824;40.292;17.998;2023-12-29T03:24:11;52.07;;;30.33;;
83807;SDS011;73824;40.292;17.998;2023-12-29T03:26:37;52.10;;;29.50;;
83807;SDS011;73824;40.292;17.998;2023-12-29T03:29:02;55.67;;;32.42;;
83807;SDS011;73824;40.292;17.998;2023-12-29T03:31:28;57.78;;;32.75;;
83807;SDS011;73824;40.292;17.998;2023-12-29T03:33:53;50.50;;;30.70;;
83807;SDS011;73824;40.292;17.998;2023-12-29T03:36:19;53.67;;;30.73;;
83807;SDS011;73824;40.292;17.998;2023-12-29T03:38:44;54.80;;;32.47;;
83807;SDS011;73824;40.292;17.998;2023-12-29T03:41:10;55.33;;;30.87;;
83807;SDS011;73824;40.292;17.998;2023-12-29T03:43:35;53.93;;;30.67;;
83807;SDS011;73824;40.292;17.998;2023-12-29T03:46:01;54.90;;;32.17;;
83807;SDS011;73824;40.292;17.998;2023-12-29T03:48:26;55.83;;;31.90;;
83807;SDS011;73824;40.292;17.998;2023-12-29T03:50:52;54.87;;;33.07;;
83807;SDS011;73824;40.292;17.998;2023-12-29T03:53:17;52.03;;;30.03;;
83807;SDS011;73824;40.292;17.998;2023-12-29T03:55:44;57.97;;;34.65;;
83807;SDS011;73824;40.292;17.998;2023-12-29T03:58:10;57.55;;;33.10;;
83807;SDS011;73824;40.292;17.998;2023-12-29T04:00:35;55.33;;;31.20;;
83807;SDS011;73824;40.292;17.998;2023-12-29T04:03:01;55.85;;;31.73;;
83807;SDS011;73824;40.292;17.998;2023-12-29T04:05:27;54.83;;;32.10;;
83807;SDS011;73824;40.292;17.998;2023-12-29T04:07:52;57.73;;;31.37;;
83807;SDS011;73824;40.292;17.998;2023-12-29T04:10:18;50.15;;;29.85;;
83807;SDS011;73824;40.292;17.998;2023-12-29T04:12:43;50.55;;;30.67;;
83807;SDS011;73824;40.292;17.998;2023-12-29T04:15:10;59.25;;;33.97;;
83807;SDS011;73824;40.292;17.998;2023-12-29T04:17:36;55.93;;;33.30;;
83807;SDS011;73824;40.292;17.998;2023-12-29T04:20:02;60.72;;;33.08;;
83807;SDS011;73824;40.292;17.998;2023-12-29T04:22:28;66.67;;;34.73;;
83807;SDS011;73824;40.292;17.998;2023-12-29T04:24:53;62.53;;;34.63;;
83807;SDS011;73824;40.292;17.998;2023-12-29T04:27:19;62.50;;;34.67;;
83807;SDS011;73824;40.292;17.998;2023-12-29T04:29:44;66.53;;;36.23;;
83807;SDS011;73824;40.292;17.998;2023-12-29T04:32:10;66.18;;;33.42;;
83807;SDS011;73824;40.292;17.998;2023-12-29T04:34:36;66.00;;;33.85;;
83807;SDS011;73824;40.292;17.998;2023-12-29T04:37:01;61.73;;;31.97;;
83807;SDS011;73824;40.292;17.998;2023-12-29T04:39:27;61.23;;;32.13;;
83807;SDS011;73824;40.292;17.998;2023-12-29T04:41:53;58.53;;;32.77;;
83807;SDS011;73824;40.292;17.998;2023-12-29T04:44:18;59.83;;;32.20;;
83807;SDS011;73824;40.292;17.998;2023-12-29T04:46:43;52.83;;;29.43;;
83807;SDS011;73824;40.292;17.998;2023-12-29T04:49:09;56.67;;;30.30;;
83807;SDS011;73824;40.292;17.998;2023-12-29T04:51:34;55.63;;;31.93;;
83807;SDS011;73824;40.292;17.998;2023-12-29T04:54:00;53.63;;;30.48;;
83807;SDS011;73824;40.292;17.998;2023-12-29T04:56:25;55.83;;;31.03;;
83807;SDS011;73824;40.292;17.998;2023-12-29T04:58:51;52.60;;;29.03;;
83807;SDS011;73824;40.292;17.998;2023-12-29T05:01:17;54.88;;;29.58;;
83807;SDS011;73824;40.292;17.998;2023-12-29T05:03:42;52.43;;;30.03;;
83807;SDS011;73824;40.292;17.998;2023-12-29T05:06:08;50.95;;;30.70;;
83807;SDS011;73824;40.292;17.998;2023-12-29T05:08:33;55.67;;;29.57;;
83807;SDS011;73824;40.292;17.998;2023-12-29T05:11:00;51.55;;;29.58;;
83807;SDS011;73824;40.292;17.998;2023-12-29T05:13:25;52.17;;;30.70;;
83807;SDS011;73824;40.292;17.998;2023-12-29T05:15:51;57.40;;;31.00;;
83807;SDS011;73824;40.292;17.998;2023-12-29T05:18:16;60.40;;;32.60;;
83807;SDS011;73824;40.292;17.998;2023-12-29T05:20:42;56.00;;;31.20;;
83807;SDS011;73824;40.292;17.998;2023-12-29T05:23:08;56.65;;;30.75;;
83807;SDS011;73824;40.292;17.998;2023-12-29T05:25:33;51.33;;;28.93;;
83807;SDS011;73824;40.292;17.998;2023-12-29T05:27:59;53.07;;;30.50;;
83807;SDS011;73824;40.292;17.998;2023-12-29T05:30:24;52.33;;;28.67;;
83807;SDS011;73824;40.292;17.998;2023-12-29T05:32:51;53.83;;;30.43;;
83807;SDS011;73824;40.292;17.998;2023-12-29T05:35:17;57.80;;;30.17;;
83807;SDS011;73824;40.292;17.998;2023-12-29T05:37:42;53.90;;;30.17;;
83807;SDS011;73824;40.292;17.998;2023-12-29T05:40:08;53.67;;;31.03;;
83807;SDS011;73824;40.292;17.998;2023-12-29T05:42:34;57.95;;;30.98;;
83807;SDS011;73824;40.292;17.998;2023-12-29T05:44:59;61.40;;;31.10;;
83807;SDS011;73824;40.292;17.998;2023-12-29T05:47:25;62.00;;;31.08;;
83807;SDS011;73824;40.292;17.998;2023-12-29T05:49:50;56.40;;;27.00;;
83807;SDS011;73824;40.292;17.998;2023-12-29T05:52:16;54.50;;;27.37;;
83807;SDS011;73824;40.292;17.998;2023-12-29T05:54:41;56.83;;;28.63;;
83807;SDS011;73824;40.292;17.998;2023-12-29T05:57:07;58.55;;;28.40;;
83807;SDS011;73824;40.292;17.998;2023-12-29T05:59:32;51.50;;;26.23;;
83807;SDS011;73824;40.292;17.998;2023-12-29T06:01:57;58.43;;;27.63;;
83807;SDS011;73824;40.292;17.998;2023-12-29T06:04:23;59.53;;;27.40;;
83807;SDS011;73824;40.292;17.998;2023-12-29T06:06:48;53.78;;;27.92;;
83807;SDS011;73824;40.292;17.998;2023-12-29T06:09:14;61.23;;;27.47;;
83807;SDS011;73824;40.292;17.998;2023-12-29T06:11:40;53.57;;;26.77;;
83807;SDS011;73824;40.292;17.998;2023-12-29T06:14:05;55.72;;;27.85;;
83807;SDS011;73824;40.292;17.998;2023-12-29T06:16:31;61.73;;;29.10;;
83807;SDS011;73824;40.292;17.998;2023-12-29T06:18:56;55.10;;;27.13;;
83807;SDS011;73824;40.292;17.998;2023-12-29T06:21:22;57.33;;;28.63;;
83807;SDS011;73824;40.292;17.998;2023-12-29T06:23:48;57.97;;;28.87;;
83807;SDS011;73824;40.292;17.998;2023-12-29T06:26:14;54.85;;;28.02;;
83807;SDS011;73824;40.292;17.998;2023-12-29T06:28:43;65.33;;;29.27;;
83807;SDS011;73824;40.292;17.998;2023-12-29T06:31:09;59.05;;;30.63;;
83807;SDS011;73824;40.292;17.998;2023-12-29T06:33:35;62.20;;;30.63;;
83807;SDS011;73824;40.292;17.998;2023-12-29T06:36:00;67.77;;;31.67;;
83807;SDS011;73824;40.292;17.998;2023-12-29T06:38:26;69.73;;;30.87;;
83807;SDS011;73824;40.292;17.998;2023-12-29T06:40:51;58.90;;;29.23;;
83807;SDS011;73824;40.292;17.998;2023-12-29T06:43:17;64.30;;;32.23;;
83807;SDS011;73824;40.292;17.998;2023-12-29T06:45:42;74.03;;;34.13;;
83807;SDS011;73824;40.292;17.998;2023-12-29T06:48:08;64.50;;;30.55;;
83807;SDS011;73824;40.292;17.998;2023-12-29T06:50:33;55.33;;;28.47;;
83807;SDS011;73824;40.292;17.998;2023-12-29T06:52:59;55.83;;;29.27;;
83807;SDS011;73824;40.292;17.998;2023-12-29T06:55:28;57.78;;;28.02;;
83807;SDS011;73824;40.292;17.998;2023-12-29T06:57:53;54.17;;;29.70;;
83807;SDS011;73824;40.292;17.998;2023-12-29T07:00:19;57.35;;;29.63;;
83807;SDS011;73824;40.292;17.998;2023-12-29T07:02:44;62.05;;;29.90;;
83807;SDS011;73824;40.292;17.998;2023-12-29T07:05:10;60.10;;;29.70;;
83807;SDS011;73824;40.292;17.998;2023-12-29T07:07:38;60.80;;;30.02;;
83807;SDS011;73824;40.292;17.998;2023-12-29T07:10:04;65.57;;;32.30;;
83807;SDS011;73824;40.292;17.998;2023-12-29T07:12:31;58.25;;;29.38;;
83807;SDS011;73824;40.292;17.998;2023-12-29T07:14:56;56.30;;;26.93;;
83807;SDS011;73824;40.292;17.998;2023-12-29T07:17:22;49.00;;;25.17;;
83807;SDS011;73824;40.292;17.998;2023-12-29T07:19:47;48.87;;;24.57;;
83807;SDS011;73824;40.292;17.998;2023-12-29T07:22:13;50.73;;;24.20;;
83807;SDS011;73824;40.292;17.998;2023-12-29T07:24:38;50.10;;;24.63;;
83807;SDS011;73824;40.292;17.998;2023-12-29T07:27:05;50.30;;;25.33;;
83807;SDS011;73824;40.292;17.998;2023-12-29T07:29:32;55.90;;;26.95;;
83807;SDS011;73824;40.292;17.998;2023-12-29T07:31:58;55.50;;;28.00;;
83807;SDS011;73824;40.292;17.998;2023-12-29T07:34:24;59.05;;;27.65;;
83807;SDS011;73824;40.292;17.998;2023-12-29T07:36:50;50.43;;;25.97;;
83807;SDS011;73824;40.292;17.998;2023-12-29T07:39:16;50.08;;;26.63;;
83807;SDS011;73824;40.292;17.998;2023-12-29T07:41:42;49.45;;;25.38;;
83807;SDS011;73824;40.292;17.998;2023-12-29T07:44:10;51.30;;;25.07;;
83807;SDS011;73824;40.292;17.998;2023-12-29T07:46:37;52.22;;;25.30;;
83807;SDS011;73824;40.292;17.998;2023-12-29T07:49:04;59.78;;;27.40;;
83807;SDS011;73824;40.292;17.998;2023-12-29T07:51:29;51.90;;;25.17;;
83807;SDS011;73824;40.292;17.998;2023-12-29T07:53:55;51.35;;;27.05;;
83807;SDS011;73824;40.292;17.998;2023-12-29T07:56:20;52.70;;;27.63;;
83807;SDS011;73824;40.292;17.998;2023-12-29T07:58:46;52.30;;;28.67;;
83807;SDS011;73824;40.292;17.998;2023-12-29T08:01:11;61.50;;;30.00;;
83807;SDS011;73824;40.292;17.998;2023-12-29T08:03:37;54.00;;;29.27;;
83807;SDS011;73824;40.292;17.998;2023-12-29T08:06:02;55.93;;;27.70;;
83807;SDS011;73824;40.292;17.998;2023-12-29T08:08:28;51.97;;;26.07;;
83807;SDS011;73824;40.292;17.998;2023-12-29T08:10:53;51.60;;;27.55;;
83807;SDS011;73824;40.292;17.998;2023-12-29T08:13:19;48.55;;;27.33;;
83807;SDS011;73824;40.292;17.998;2023-12-29T08:15:44;54.67;;;27.37;;
83807;SDS011;73824;40.292;17.998;2023-12-29T08:18:10;73.90;;;36.67;;
83807;SDS011;73824;40.292;17.998;2023-12-29T08:20:35;68.20;;;33.92;;
83807;SDS011;73824;40.292;17.998;2023-12-29T08:23:01;72.30;;;36.27;;
83807;SDS011;73824;40.292;17.998;2023-12-29T08:25:28;66.43;;;33.90;;
83807;SDS011;73824;40.292;17.998;2023-12-29T08:27:54;64.25;;;33.85;;
83807;SDS011;73824;40.292;17.998;2023-12-29T08:30:21;65.57;;;36.00;;
83807;SDS011;73824;40.292;17.998;2023-12-29T08:32:46;63.10;;;35.78;;
83807;SDS011;73824;40.292;17.998;2023-12-29T08:35:12;71.27;;;41.73;;
83807;SDS011;73824;40.292;17.998;2023-12-29T08:37:37;80.30;;;45.15;;
83807;SDS011;73824;40.292;17.998;2023-12-29T08:40:03;86.85;;;45.22;;
83807;SDS011;73824;40.292;17.998;2023-12-29T08:42:29;76.70;;;43.05;;
83807;SDS011;73824;40.292;17.998;2023-12-29T08:44:55;77.57;;;44.03;;
83807;SDS011;73824;40.292;17.998;2023-12-29T08:47:20;78.23;;;41.80;;
83807;SDS011;73824;40.292;17.998;2023-12-29T08:49:46;73.90;;;39.95;;
83807;SDS011;73824;40.292;17.998;2023-12-29T08:52:14;96.22;;;50.35;;
83807;SDS011;73824;40.292;17.998;2023-12-29T08:54:39;105.65;;;56.92;;
83807;SDS011;73824;40.292;17.998;2023-12-29T08:57:05;94.43;;;52.90;;
83807;SDS011;73824;40.292;17.998;2023-12-29T08:59:32;87.63;;;51.10;;
83807;SDS011;73824;40.292;17.998;2023-12-29T09:02:00;96.68;;;53.78;;
83807;SDS011;73824;40.292;17.998;2023-12-29T09:04:25;86.77;;;52.63;;
83807;SDS011;73824;40.292;17.998;2023-12-29T09:06:51;89.43;;;53.40;;
83807;SDS011;73824;40.292;17.998;2023-12-29T09:09:17;88.85;;;48.70;;
83807;SDS011;73824;40.292;17.998;2023-12-29T09:11:43;77.53;;;45.07;;
83807;SDS011;73824;40.292;17.998;2023-12-29T09:14:10;90.15;;;51.05;;
83807;SDS011;73824;40.292;17.998;2023-12-29T09:16:35;91.77;;;53.67;;
83807;SDS011;73824;40.292;17.998;2023-12-29T09:19:01;96.63;;;52.65;;
83807;SDS011;73824;40.292;17.998;2023-12-29T09:21:27;99.77;;;56.47;;
83807;SDS011;73824;40.292;17.998;2023-12-29T09:23:52;93.93;;;53.37;;
83807;SDS011;73824;40.292;17.998;2023-12-29T09:26:18;93.47;;;53.83;;
83807;SDS011;73824;40.292;17.998;2023-12-29T09:28:43;91.73;;;51.30;;
83807;SDS011;73824;40.292;17.998;2023-12-29T09:31:10;94.95;;;52.88;;
83807;SDS011;73824;40.292;17.998;2023-12-29T09:33:35;87.97;;;49.88;;
83807;SDS011;73824;40.292;17.998;2023-12-29T09:36:01;94.70;;;52.20;;
83807;SDS011;73824;40.292;17.998;2023-12-29T09:38:28;93.07;;;53.28;;
83807;SDS011;73824;40.292;17.998;2023-12-29T09:40:53;113.33;;;63.73;;
83807;SDS011;73824;40.292;17.998;2023-12-29T09:43:25;115.65;;;69.55;;
83807;SDS011;73824;40.292;17.998;2023-12-29T09:45:51;107.75;;;66.22;;
83807;SDS011;73824;40.292;17.998;2023-12-29T09:48:17;107.25;;;62.47;;
83807;SDS011;73824;40.292;17.998;2023-12-29T09:50:45;118.65;;;67.78;;
83807;SDS011;73824;40.292;17.998;2023-12-29T09:53:11;113.83;;;68.43;;
83807;SDS011;73824;40.292;17.998;2023-12-29T09:55:38;139.48;;;78.18;;
83807;SDS011;73824;40.292;17.998;2023-12-29T09:58:06;127.97;;;78.15;;
83807;SDS011;73824;40.292;17.998;2023-12-29T10:00:33;139.85;;;79.22;;
83807;SDS011;73824;40.292;17.998;2023-12-29T10:02:59;143.10;;;85.77;;
83807;SDS011;73824;40.292;17.998;2023-12-29T10:05:25;132.13;;;81.55;;
83807;SDS011;73824;40.292;17.998;2023-12-29T10:07:51;145.90;;;87.70;;
83807;SDS011;73824;40.292;17.998;2023-12-29T10:10:18;136.10;;;82.57;;
83807;SDS011;73824;40.292;17.998;2023-12-29T10:12:48;151.70;;;93.15;;
83807;SDS011;73824;40.292;17.998;2023-12-29T10:15:24;210.93;;;128.07;;
83807;SDS011;73824;40.292;17.998;2023-12-29T10:23:53;138.10;;;81.23;;
83807;SDS011;73824;40.292;17.998;2023-12-29T10:26:34;143.38;;;87.53;;
83807;SDS011;73824;40.292;17.998;2023-12-29T10:29:01;129.80;;;81.68;;
83807;SDS011;73824;40.292;17.998;2023-12-29T10:31:27;119.22;;;71.35;;
83807;SDS011;73824;40.292;17.998;2023-12-29T10:33:52;120.80;;;70.77;;
83807;SDS011;73824;40.292;17.998;2023-12-29T10:36:54;99.07;;;58.38;;
83807;SDS011;73824;40.292;17.998;2023-12-29T10:39:20;93.05;;;51.30;;
83807;SDS011;73824;40.292;17.998;2023-12-29T10:41:46;89.87;;;49.57;;
83807;SDS011;73824;40.292;17.998;2023-12-29T10:44:11;75.53;;;44.87;;
83807;SDS011;73824;40.292;17.998;2023-12-29T10:46:37;65.78;;;38.35;;
83807;SDS011;73824;40.292;17.998;2023-12-29T10:49:06;61.77;;;35.77;;
83807;SDS011;73824;40.292;17.998;2023-12-29T10:51:35;61.70;;;36.47;;
83807;SDS011;73824;40.292;17.998;2023-12-29T10:54:02;63.85;;;37.10;;
83807;SDS011;73824;40.292;17.998;2023-12-29T10:56:28;55.28;;;33.17;;
83807;SDS011;73824;40.292;17.998;2023-12-29T10:59:04;48.17;;;30.50;;
83807;SDS011;73824;40.292;17.998;2023-12-29T11:01:31;52.75;;;29.88;;
83807;SDS011;73824;40.292;17.998;2023-12-29T11:04:00;47.40;;;29.55;;
83807;SDS011;73824;40.292;17.998;2023-12-29T11:06:42;42.90;;;25.98;;
83807;SDS011;73824;40.292;17.998;2023-12-29T11:09:11;46.05;;;27.02;;
83807;SDS011;73824;40.292;17.998;2023-12-29T11:11:37;38.67;;;23.70;;
83807;SDS011;73824;40.292;17.998;2023-12-29T11:14:03;42.03;;;25.55;;
83807;SDS011;73824;40.292;17.998;2023-12-29T11:16:30;41.63;;;24.70;;
83807;SDS011;73824;40.292;17.998;2023-12-29T11:18:57;42.75;;;25.13;;
83807;SDS011;73824;40.292;17.998;2023-12-29T11:21:24;42.53;;;26.00;;
83807;SDS011;73824;40.292;17.998;2023-12-29T11:23:51;40.95;;;23.08;;
83807;SDS011;73824;40.292;17.998;2023-12-29T11:26:18;36.60;;;21.85;;
83807;SDS011;73824;40.292;17.998;2023-12-29T11:28:46;39.67;;;22.57;;
83807;SDS011;73824;40.292;17.998;2023-12-29T11:31:14;37.05;;;22.48;;
83807;SDS011;73824;40.292;17.998;2023-12-29T11:33:46;40.05;;;23.33;;
83807;SDS011;73824;40.292;17.998;2023-12-29T11:36:28;47.08;;;26.33;;
83807;SDS011;73824;40.292;17.998;2023-12-29T11:41:46;40.57;;;22.60;;
83807;SDS011;73824;40.292;17.998;2023-12-29T11:44:13;39.08;;;21.83;;
83807;SDS011;73824;40.292;17.998;2023-12-29T11:46:50;34.65;;;20.48;;
83807;SDS011;73824;40.292;17.998;2023-12-29T11:49:15;33.83;;;19.33;;
83807;SDS011;73824;40.292;17.998;2023-12-29T11:51:41;36.08;;;21.00;;
83807;SDS011;73824;40.292;17.998;2023-12-29T11:54:21;36.20;;;21.73;;
83807;SDS011;73824;40.292;17.998;2023-12-29T11:56:48;39.28;;;22.83;;
83807;SDS011;73824;40.292;17.998;2023-12-29T11:59:14;47.08;;;25.92;;
83807;SDS011;73824;40.292;17.998;2023-12-29T12:01:40;46.50;;;28.60;;
83807;SDS011;73824;40.292;17.998;2023-12-29T12:07:56;49.65;;;28.13;;
83807;SDS011;73824;40.292;17.998;2023-12-29T12:12:45;46.70;;;24.60;;
83807;SDS011;73824;40.292;17.998;2023-12-29T12:17:55;34.22;;;19.52;;
83807;SDS011;73824;40.292;17.998;2023-12-29T12:20:21;28.48;;;16.63;;
83807;SDS011;73824;40.292;17.998;2023-12-29T12:22:48;32.13;;;17.00;;
83807;SDS011;73824;40.292;17.998;2023-12-29T12:25:19;29.65;;;17.05;;
83807;SDS011;73824;40.292;17.998;2023-12-29T12:27:45;31.55;;;16.45;;
83807;SDS011;73824;40.292;17.998;2023-12-29T12:30:11;36.07;;;19.00;;
83807;SDS011;73824;40.292;17.998;2023-12-29T12:32:43;33.95;;;16.85;;
83807;SDS011;73824;40.292;17.998;2023-12-29T12:35:15;34.07;;;20.03;;
83807;SDS011;73824;40.292;17.998;2023-12-29T12:37:43;32.78;;;19.15;;
83807;SDS011;73824;40.292;17.998;2023-12-29T12:40:09;38.87;;;23.03;;
83807;SDS011;73824;40.292;17.998;2023-12-29T12:42:38;34.85;;;20.48;;
83807;SDS011;73824;40.292;17.998;2023-12-29T12:45:11;28.60;;;15.70;;
83807;SDS011;73824;40.292;17.998;2023-12-29T12:47:42;29.80;;;15.45;;
83807;SDS011;73824;40.292;17.998;2023-12-29T12:50:09;26.23;;;14.07;;
83807;SDS011;73824;40.292;17.998;2023-12-29T12:52:35;29.55;;;15.75;;
83807;SDS011;73824;40.292;17.998;2023-12-29T12:55:02;30.17;;;16.67;;
83807;SDS011;73824;40.292;17.998;2023-12-29T12:57:28;27.23;;;14.75;;
83807;SDS011;73824;40.292;17.998;2023-12-29T12:59:54;34.47;;;17.20;;
83807;SDS011;73824;40.292;17.998;2023-12-29T13:02:21;32.95;;;16.15;;
83807;SDS011;73824;40.292;17.998;2023-12-29T13:04:47;32.05;;;16.88;;
83807;SDS011;73824;40.292;17.998;2023-12-29T13:07:16;34.25;;;19.65;;
83807;SDS011;73824;40.292;17.998;2023-12-29T13:09:43;32.90;;;17.43;;
83807;SDS011;73824;40.292;17.998;2023-12-29T13:12:13;30.95;;;16.95;;
83807;SDS011;73824;40.292;17.998;2023-12-29T13:14:41;35.00;;;19.30;;
83807;SDS011;73824;40.292;17.998;2023-12-29T13:17:10;34.80;;;19.08;;
83807;SDS011;73824;40.292;17.998;2023-12-29T13:19:37;40.30;;;22.52;;
83807;SDS011;73824;40.292;17.998;2023-12-29T13:22:07;63.60;;;31.07;;
83807;SDS011;73824;40.292;17.998;2023-12-29T13:24:33;46.67;;;24.58;;
83807;SDS011;73824;40.292;17.998;2023-12-29T13:27:04;42.50;;;23.60;;
83807;SDS011;73824;40.292;17.998;2023-12-29T13:29:31;42.80;;;22.55;;
83807;SDS011;73824;40.292;17.998;2023-12-29T13:32:39;39.15;;;22.42;;
83807;SDS011;73824;40.292;17.998;2023-12-29T13:35:06;40.03;;;22.30;;
83807;SDS011;73824;40.292;17.998;2023-12-29T13:37:47;38.55;;;22.70;;
83807;SDS011;73824;40.292;17.998;2023-12-29T13:40:28;38.95;;;21.17;;
83807;SDS011;73824;40.292;17.998;2023-12-29T13:43:07;33.28;;;18.73;;
83807;SDS011;73824;40.292;17.998;2023-12-29T13:45:35;34.38;;;20.35;;
83807;SDS011;73824;40.292;17.998;2023-12-29T13:48:02;40.10;;;21.30;;
83807;SDS011;73824;40.292;17.998;2023-12-29T13:50:29;33.92;;;18.95;;
83807;SDS011;73824;40.292;17.998;2023-12-29T13:52:55;36.35;;;18.77;;
83807;SDS011;73824;40.292;17.998;2023-12-29T13:55:21;33.60;;;18.50;;
83807;SDS011;73824;40.292;17.998;2023-12-29T13:57:47;34.53;;;19.08;;
83807;SDS011;73824;40.292;17.998;2023-12-29T14:00:17;34.47;;;19.67;;
83807;SDS011;73824;40.292;17.998;2023-12-29T14:05:30;33.33;;;17.85;;
83807;SDS011;73824;40.292;17.998;2023-12-29T14:10:33;32.00;;;18.02;;
83807;SDS011;73824;40.292;17.998;2023-12-29T14:13:09;33.00;;;19.10;;
83807;SDS011;73824;40.292;17.998;2023-12-29T14:15:39;34.50;;;19.13;;
83807;SDS011;73824;40.292;17.998;2023-12-29T14:20:37;32.58;;;17.17;;
83807;SDS011;73824;40.292;17.998;2023-12-29T14:23:04;30.35;;;16.98;;
83807;SDS011;73824;40.292;17.998;2023-12-29T14:25:36;34.30;;;18.63;;
83807;SDS011;73824;40.292;17.998;2023-12-29T14:28:02;31.63;;;18.63;;
83807;SDS011;73824;40.292;17.998;2023-12-29T14:30:41;35.58;;;19.63;;
83807;SDS011;73824;40.292;17.998;2023-12-29T14:33:07;35.67;;;19.45;;
83807;SDS011;73824;40.292;17.998;2023-12-29T14:35:33;44.47;;;23.90;;